Time;durP1;ratioP1;P1;durP2;ratioP2;P2;SDS_P1;SDS_P2;PMS_P1;PMS_P2;Temp;Humidity;BMP_temperature;BMP_pressure;BME280_temperature;BME280_humidity;BME280_pressure;Samples;Min_cycle;Max_cycle;Signal;HPM_P1;HPM_P2
2021/12/10 00:02:06;;;;;;;22.13;9.88;;;;;;;1.78;100.00;96432.66;4972344;28;20109;-82
2021/12/10 00:04:36;;;;;;;20.35;9.02;;;;;;;1.75;100.00;96427.94;4955956;28;20058;-82
2021/12/10 00:07:09;;;;;;;22.50;9.48;;;;;;;1.77;100.00;96428.44;4957329;28;20491;-81
2021/12/10 00:09:40;;;;;;;24.75;9.95;;;;;;;1.72;100.00;96417.03;4956590;28;20081;-79
2021/12/10 00:12:17;;;;;;;24.83;9.80;;;;;;;1.73;100.00;96413.31;4956369;28;20614;-81
2021/12/10 00:14:44;;;;;;;19.17;9.52;;;;;;;1.70;100.00;96416.53;4972718;28;20078;-81
2021/12/10 00:17:12;;;;;;;20.70;8.75;;;;;;;1.73;100.00;96399.97;4972778;28;20058;-82
2021/12/10 00:19:45;;;;;;;20.85;8.88;;;;;;;1.67;100.00;96404.56;4955982;28;20042;-81
2021/12/10 00:22:35;;;;;;;19.17;8.30;;;;;;;1.67;100.00;96401.09;4956412;28;20058;-82
2021/12/10 00:25:05;;;;;;;21.13;8.82;;;;;;;1.55;100.00;96403.41;4974230;28;20496;-80
2021/12/10 00:27:32;;;;;;;23.67;9.73;;;;;;;1.53;100.00;96394.88;4976688;28;20054;-81
2021/12/10 00:30:14;;;;;;;20.95;9.65;;;;;;;1.52;100.00;96399.44;4976607;28;20102;-80
2021/12/10 00:32:48;;;;;;;20.60;9.55;;;;;;;1.42;100.00;96401.44;4957389;28;20768;-80
2021/12/10 00:35:20;;;;;;;20.42;9.15;;;;;;;1.47;100.00;96402.16;4977927;28;20105;-80
2021/12/10 00:37:46;;;;;;;23.17;9.20;;;;;;;1.43;100.00;96395.03;4963057;28;20082;-83
2021/12/10 00:40:16;;;;;;;20.20;9.55;;;;;;;1.47;100.00;96396.06;4962820;28;20078;-81
2021/12/10 00:42:43;;;;;;;21.35;9.50;;;;;;;1.48;100.00;96405.63;4957965;28;20400;-81
2021/12/10 00:45:13;;;;;;;25.77;10.20;;;;;;;1.42;100.00;96394.22;4958666;28;20050;-81
2021/12/10 00:47:40;;;;;;;23.30;10.27;;;;;;;1.45;100.00;96387.53;4974675;28;20890;-81
2021/12/10 00:50:12;;;;;;;20.55;10.65;;;;;;;1.39;100.00;96383.34;4958288;28;20047;-80
2021/12/10 00:52:39;;;;;;;28.42;11.27;;;;;;;1.21;100.00;96391.03;4975908;28;20105;-78
2021/12/10 00:55:07;;;;;;;25.40;10.13;;;;;;;1.37;100.00;96396.97;4958804;28;20097;-79
2021/12/10 00:57:33;;;;;;;25.90;10.90;;;;;;;1.42;100.00;96394.22;4957582;28;20601;-81
2021/12/10 01:00:01;;;;;;;23.85;10.05;;;;;;;1.42;100.00;96388.88;4975317;28;20478;-82
2021/12/10 01:02:28;;;;;;;22.52;9.98;;;;;;;1.46;100.00;96389.13;4973251;28;20070;-78
2021/12/10 01:04:58;;;;;;;20.63;9.57;;;;;;;1.38;100.00;96381.75;4958321;28;20061;-81
2021/12/10 01:07:28;;;;;;;21.80;9.30;;;;;;;1.49;100.00;96386.69;4975820;28;20062;-80
2021/12/10 01:09:57;;;;;;;19.30;8.85;;;;;;;1.50;100.00;96374.13;4976231;28;20054;-80
2021/12/10 01:12:30;;;;;;;22.05;9.02;;;;;;;1.44;100.00;96365.44;4974509;28;20059;-80
2021/12/10 01:15:32;;;;;;;16.35;8.00;;;;;;;1.44;100.00;96356.63;4958272;28;20113;-82
2021/12/10 01:23:55;;;;;;;11.80;5.05;;;;;;;1.50;100.00;96342.94;4973608;28;20618;-81
2021/12/10 01:29:09;;;;;;;13.35;5.35;;;;;;;1.55;100.00;96344.75;4975484;28;20070;-78
2021/12/10 01:31:37;;;;;;;14.25;5.45;;;;;;;1.60;100.00;96332.09;4976103;28;20082;-80
2021/12/10 01:34:05;;;;;;;12.90;6.25;;;;;;;1.56;100.00;96322.31;4958374;28;20051;-80
2021/12/10 01:36:33;;;;;;;14.98;6.13;;;;;;;1.55;100.00;96324.19;4960542;28;20054;-80
2021/12/10 01:38:59;;;;;;;13.13;6.38;;;;;;;1.46;100.00;96317.13;4975167;28;20113;-80
2021/12/10 01:41:35;;;;;;;17.30;6.50;;;;;;;1.48;100.00;96325.63;4975394;28;20055;-80
2021/12/10 01:44:13;;;;;;;13.05;7.00;;;;;;;1.44;100.00;96308.63;4975231;28;20101;-79
2021/12/10 01:46:42;;;;;;;14.77;7.25;;;;;;;1.45;100.00;96311.00;4975366;28;20090;-81
2021/12/10 01:49:12;;;;;;;17.52;7.18;;;;;;;1.41;100.00;96314.53;4973749;28;20074;-80
2021/12/10 01:51:41;;;;;;;18.92;8.15;;;;;;;1.42;100.00;96305.47;4974285;28;20059;-80
2021/12/10 01:54:17;;;;;;;19.08;7.40;;;;;;;1.38;100.00;96299.91;4974493;28;20055;-80
2021/12/10 01:56:46;;;;;;;16.88;8.02;;;;;;;1.40;100.00;96288.94;4952090;28;20097;-79
2021/12/10 01:59:17;;;;;;;20.35;8.00;;;;;;;1.37;100.00;96294.88;4974588;28;20055;-80
2021/12/10 02:01:47;;;;;;;21.00;8.68;;;;;;;1.32;100.00;96290.41;4959606;28;20066;-80
2021/12/10 02:04:16;;;;;;;20.65;8.52;;;;;;;1.36;100.00;96282.63;4973428;28;20121;-81
2021/12/10 02:06:43;;;;;;;19.25;8.27;;;;;;;1.30;100.00;96284.56;4939035;28;20384;-82
2021/12/10 02:09:11;;;;;;;22.63;8.57;;;;;;;1.23;100.00;96271.63;4963363;28;20059;-81
2021/12/10 02:11:38;;;;;;;17.42;7.82;;;;;;;1.49;100.00;96266.69;4966167;28;20051;-80
2021/12/10 02:14:05;;;;;;;22.63;8.32;;;;;;;1.45;100.00;96254.22;4959706;28;20098;-79
2021/12/10 02:16:32;;;;;;;19.80;8.23;;;;;;;1.42;100.00;96257.50;4965675;28;20042;-83
2021/12/10 02:18:59;;;;;;;18.05;8.05;;;;;;;1.44;100.00;96258.00;4995837;28;20054;-79
2021/12/10 02:21:27;;;;;;;15.77;7.40;;;;;;;1.50;100.00;96252.28;4978254;28;20523;-79
2021/12/10 02:23:57;;;;;;;19.38;8.15;;;;;;;1.57;100.00;96249.25;4958632;28;20685;-78
2021/12/10 02:26:30;;;;;;;17.13;7.70;;;;;;;1.48;100.00;96243.78;4948282;28;20051;-79
2021/12/10 02:28:58;;;;;;;19.13;8.07;;;;;;;1.46;100.00;96243.28;4947872;28;20054;-79
2021/12/10 02:31:25;;;;;;;17.60;7.28;;;;;;;1.43;100.00;96232.41;4973079;28;20105;-82
2021/12/10 02:33:54;;;;;;;20.35;7.90;;;;;;;1.43;100.00;96224.41;4974095;28;20141;-80
2021/12/10 02:36:25;;;;;;;14.55;7.28;;;;;;;1.42;100.00;96218.28;4974761;28;20050;-80
2021/12/10 02:38:54;;;;;;;17.70;7.00;;;;;;;1.44;100.00;96207.34;4956440;28;20635;-79
2021/12/10 02:41:24;;;;;;;20.70;7.22;;;;;;;1.49;100.00;96201.91;4973975;28;20091;-80
2021/12/10 02:43:52;;;;;;;17.35;7.32;;;;;;;1.50;100.00;96203.47;4965425;28;20172;-81
2021/12/10 02:46:19;;;;;;;18.98;7.28;;;;;;;1.52;100.00;96190.66;4927956;29;20047;-80
2021/12/10 02:48:46;;;;;;;18.70;7.18;;;;;;;1.65;100.00;96192.59;4917907;29;20135;-80
2021/12/10 02:51:14;;;;;;;18.38;6.97;;;;;;;1.82;100.00;96192.81;4917999;29;20047;-81
2021/12/10 02:53:44;;;;;;;13.80;6.40;;;;;;;1.83;100.00;96165.06;4947107;29;20051;-80
2021/12/10 02:56:15;;;;;;;16.77;7.22;;;;;;;1.85;100.00;96178.88;4936236;29;20067;-79
2021/12/10 02:58:43;;;;;;;18.85;6.78;;;;;;;1.78;100.00;96165.91;4951101;29;20047;-80
2021/12/10 03:01:22;;;;;;;15.30;7.20;;;;;;;1.76;100.00;96151.28;4935309;29;20036;-82
2021/12/10 03:03:48;;;;;;;19.38;7.45;;;;;;;1.80;100.00;96149.63;4936378;29;20086;-78
2021/12/10 03:06:17;;;;;;;17.80;7.28;;;;;;;1.79;100.00;96148.84;4918256;29;20086;-79
2021/12/10 03:08:47;;;;;;;19.23;7.93;;;;;;;1.84;100.00;96151.41;4934184;29;20071;-81
2021/12/10 03:11:15;;;;;;;16.63;7.25;;;;;;;1.59;100.00;96159.88;4925852;28;20560;-81
2021/12/10 03:13:42;;;;;;;20.77;8.07;;;;;;;1.72;100.00;96150.31;4954597;28;20089;-80
2021/12/10 03:16:09;;;;;;;20.00;7.47;;;;;;;1.79;100.00;96146.16;4972682;28;20086;-80
2021/12/10 03:18:39;;;;;;;18.05;7.40;;;;;;;1.83;100.00;96138.38;4951430;28;20058;-80
2021/12/10 03:21:09;;;;;;;16.45;7.38;;;;;;;1.90;100.00;96144.09;4971604;28;20057;-79
2021/12/10 03:23:42;;;;;;;18.92;7.70;;;;;;;1.87;100.00;96150.03;4971956;28;20047;-80
2021/12/10 03:26:18;;;;;;;20.92;7.95;;;;;;;1.95;100.00;96143.22;4972309;28;20062;-80
2021/12/10 03:28:47;;;;;;;15.55;8.05;;;;;;;2.02;100.00;96131.06;4954696;28;20078;-80
2021/12/10 03:31:15;;;;;;;18.13;8.38;;;;;;;2.02;100.00;96147.06;4954730;28;20701;-81
2021/12/10 03:33:42;;;;;;;17.48;7.78;;;;;;;2.04;100.00;96144.13;4954406;28;20057;-80
2021/12/10 03:36:10;;;;;;;19.02;7.43;;;;;;;2.07;100.00;96138.16;4973620;28;20148;-81
2021/12/10 03:38:39;;;;;;;19.42;7.38;;;;;;;2.04;100.00;96134.22;4956424;28;20081;-79
2021/12/10 03:41:09;;;;;;;16.15;7.80;;;;;;;2.03;100.00;96137.97;4955884;28;20047;-80
2021/12/10 03:43:36;;;;;;;16.85;8.00;;;;;;;2.22;100.00;96146.66;4972869;28;20146;-81
2021/12/10 03:46:04;;;;;;;17.10;8.32;;;;;;;2.24;100.00;96144.50;4973283;28;20061;-80
2021/12/10 03:48:35;;;;;;;16.58;7.90;;;;;;;2.26;100.00;96134.31;4971123;28;20151;-79
2021/12/10 03:51:05;;;;;;;17.65;8.00;;;;;;;1.87;100.00;96142.03;4972323;28;20110;-81
2021/12/10 03:53:32;;;;;;;16.67;8.70;;;;;;;2.15;100.00;96137.47;4972203;28;20086;-80
2021/12/10 03:56:02;;;;;;;16.75;7.57;;;;;;;2.27;100.00;96140.44;4972760;28;20110;-80
2021/12/10 03:58:29;;;;;;;20.15;8.40;;;;;;;2.20;100.00;96124.81;4954997;28;20437;-82
2021/12/10 04:00:57;;;;;;;17.83;8.00;;;;;;;2.11;100.00;96131.97;4956522;28;20078;-81
2021/12/10 04:03:27;;;;;;;18.88;8.00;;;;;;;2.16;100.00;96134.53;4974289;28;20062;-80
2021/12/10 04:05:54;;;;;;;18.98;7.90;;;;;;;1.88;100.00;96132.94;4976999;28;20055;-80
2021/12/10 04:08:21;;;;;;;17.42;7.78;;;;;;;2.22;100.00;96135.97;4975727;28;20455;-80
2021/12/10 04:10:49;;;;;;;20.13;7.85;;;;;;;1.91;100.00;96129.66;4975636;28;20051;-81
2021/12/10 04:13:17;;;;;;;15.93;8.00;;;;;;;1.85;100.00;96125.53;4975714;28;20121;-81
2021/12/10 04:15:44;;;;;;;21.77;8.65;;;;;;;1.88;100.00;96130.28;4975916;28;20050;-80
2021/12/10 04:18:11;;;;;;;18.42;8.75;;;;;;;2.21;100.00;96134.41;4956562;28;20055;-82
2021/12/10 04:20:40;;;;;;;24.98;7.93;;;;;;;2.20;100.00;96132.81;4975409;28;20109;-80
2021/12/10 04:23:09;;;;;;;21.73;8.93;;;;;;;2.23;100.00;96136.78;4958363;28;20074;-80
2021/12/10 04:25:36;;;;;;;17.48;8.27;;;;;;;1.97;100.00;96139.16;4959557;28;20109;-81
2021/12/10 04:28:09;;;;;;;19.63;8.60;;;;;;;1.93;100.00;96138.19;4976180;28;20109;-81
2021/12/10 04:30:40;;;;;;;20.33;9.13;;;;;;;2.08;100.00;96135.22;4958410;28;20103;-82
2021/12/10 04:33:08;;;;;;;16.13;8.60;;;;;;;2.01;100.00;96128.69;4974308;28;20046;-81
2021/12/10 04:35:35;;;;;;;19.40;9.30;;;;;;;2.35;100.00;96134.38;4975683;28;20446;-81
2021/12/10 04:38:03;;;;;;;18.20;8.60;;;;;;;2.27;100.00;96124.44;4958872;28;20050;-81
2021/12/10 04:40:30;;;;;;;26.15;9.57;;;;;;;2.45;100.00;96134.97;4958323;28;20534;-81
2021/12/10 04:42:57;;;;;;;20.85;9.38;;;;;;;2.23;100.00;96136.78;4974776;28;20082;-82
2021/12/10 04:45:24;;;;;;;19.13;9.00;;;;;;;2.50;100.00;96139.44;4959168;28;20055;-80
2021/12/10 04:47:51;;;;;;;19.58;8.90;;;;;;;2.59;100.00;96134.16;4973646;28;20085;-82
2021/12/10 04:50:20;;;;;;;19.77;9.27;;;;;;;2.51;100.00;96117.75;4958655;28;20054;-81
2021/12/10 04:52:47;;;;;;;21.90;8.73;;;;;;;2.53;100.00;96130.03;4958039;28;20106;-81
2021/12/10 04:55:16;;;;;;;20.15;8.82;;;;;;;2.43;100.00;96120.31;4958830;28;20112;-80
2021/12/10 04:57:43;;;;;;;16.88;8.77;;;;;;;2.55;100.00;96131.31;4958553;28;20054;-83
2021/12/10 05:00:15;;;;;;;20.08;8.77;;;;;;;2.50;100.00;96123.41;4975538;28;20059;-82
2021/12/10 05:02:44;;;;;;;17.15;8.52;;;;;;;2.45;100.00;96118.94;4955766;28;20110;-81
2021/12/10 05:05:12;;;;;;;16.92;8.23;;;;;;;2.54;100.00;96119.03;4959384;28;20509;-80
2021/12/10 05:07:39;;;;;;;17.00;8.18;;;;;;;2.50;100.00;96116.16;4976268;28;20055;-81
2021/12/10 05:10:15;;;;;;;18.80;8.30;;;;;;;2.50;100.00;96121.50;4976160;28;20051;-83
2021/12/10 05:12:42;;;;;;;22.52;8.98;;;;;;;2.44;100.00;96111.25;4973046;28;20051;-79
2021/12/10 05:15:12;;;;;;;18.05;9.18;;;;;;;2.36;100.00;96102.06;4957648;28;20113;-80
2021/12/10 05:17:40;;;;;;;17.50;8.55;;;;;;;2.35;100.00;96113.81;4973559;28;20165;-79
2021/12/10 05:20:12;;;;;;;17.85;8.43;;;;;;;2.37;100.00;96114.34;4975249;28;20081;-80
2021/12/10 05:22:41;;;;;;;22.40;9.05;;;;;;;2.43;100.00;96107.78;4957097;28;20074;-80
2021/12/10 05:25:09;;;;;;;18.92;7.93;;;;;;;2.41;100.00;96104.63;4975144;28;20051;-80
2021/12/10 05:27:36;;;;;;;19.20;8.85;;;;;;;2.43;100.00;96101.63;4977847;28;20120;-84
2021/12/10 05:30:05;;;;;;;19.20;8.57;;;;;;;2.48;100.00;96102.31;4982887;28;20038;-82
2021/12/10 05:32:33;;;;;;;19.75;8.18;;;;;;;2.47;100.00;96100.75;4981450;28;20030;-79
2021/12/10 05:35:00;;;;;;;24.25;9.00;;;;;;;2.47;100.00;96094.63;4968142;28;20051;-80
2021/12/10 05:37:26;;;;;;;20.90;8.85;;;;;;;2.51;100.00;96096.38;4959430;28;20051;-81
2021/12/10 05:39:53;;;;;;;21.42;8.98;;;;;;;2.63;100.00;96097.75;4975420;28;20404;-79
2021/12/10 05:42:19;;;;;;;28.45;9.00;;;;;;;2.53;100.00;96092.63;4976615;28;20102;-78
2021/12/10 05:44:46;;;;;;;19.00;8.13;;;;;;;2.54;100.00;96086.97;4969015;28;20039;-82
2021/12/10 05:47:13;;;;;;;22.88;8.75;;;;;;;2.51;100.00;96092.91;4972795;28;20051;-80
2021/12/10 05:49:40;;;;;;;20.40;8.75;;;;;;;2.55;100.00;96085.91;4970480;28;20055;-79
2021/12/10 05:52:07;;;;;;;20.85;8.93;;;;;;;2.56;100.00;96073.31;4975014;28;20054;-79
2021/12/10 05:54:35;;;;;;;19.63;8.73;;;;;;;2.60;100.00;96079.66;4976005;28;20050;-79
2021/12/10 05:57:03;;;;;;;20.95;9.38;;;;;;;2.59;100.00;96080.72;4975716;28;20051;-79
2021/12/10 05:59:31;;;;;;;20.33;9.23;;;;;;;2.33;100.00;96072.50;4957122;28;20083;-80
2021/12/10 06:01:58;;;;;;;18.98;8.90;;;;;;;2.59;100.00;96065.50;4957329;28;20054;-79
2021/12/10 06:04:27;;;;;;;19.23;8.88;;;;;;;2.66;100.00;96081.13;4971761;28;20046;-81
2021/12/10 06:06:55;;;;;;;17.15;8.82;;;;;;;2.52;100.00;96067.81;4973344;28;20054;-81
2021/12/10 06:09:22;;;;;;;19.17;9.35;;;;;;;2.35;100.00;96076.44;4954610;28;20051;-80
2021/12/10 06:11:49;;;;;;;17.35;8.32;;;;;;;2.21;100.00;96070.34;4952609;28;20051;-80
2021/12/10 06:14:16;;;;;;;16.90;7.90;;;;;;;2.17;100.00;96063.25;4936959;29;20110;-82
2021/12/10 06:16:43;;;;;;;20.65;8.65;;;;;;;2.51;100.00;96072.34;4936382;29;20666;-81
2021/12/10 06:19:09;;;;;;;19.30;8.50;;;;;;;2.50;100.00;96070.75;4952812;28;20051;-80
2021/12/10 06:21:38;;;;;;;19.95;8.48;;;;;;;2.64;100.00;96068.06;4952181;28;20059;-79
2021/12/10 06:24:06;;;;;;;17.80;8.25;;;;;;;2.49;100.00;96069.19;4952893;28;20411;-80
2021/12/10 06:26:33;;;;;;;17.85;9.15;;;;;;;2.71;100.00;96071.09;4953519;28;20086;-80
2021/12/10 06:29:00;;;;;;;20.38;8.40;;;;;;;2.69;100.00;96075.94;4955687;28;20484;-82
2021/12/10 06:31:26;;;;;;;16.45;8.48;;;;;;;2.75;100.00;96065.94;4958316;28;20043;-82
2021/12/10 06:33:53;;;;;;;17.23;8.50;;;;;;;2.38;100.00;96059.81;4953268;28;20122;-80
2021/12/10 06:36:20;;;;;;;17.88;8.20;;;;;;;2.61;100.00;96063.31;4936727;29;20125;-80
2021/12/10 06:38:48;;;;;;;15.82;8.32;;;;;;;2.73;100.00;96060.91;4936464;29;20051;-79
2021/12/10 06:41:15;;;;;;;17.92;7.70;;;;;;;2.80;100.00;96053.25;4933468;28;20086;-81
2021/12/10 06:43:42;;;;;;;15.55;8.27;;;;;;;2.36;100.00;96061.22;4951664;28;20559;-80
2021/12/10 06:46:09;;;;;;;15.13;7.65;;;;;;;2.28;100.00;96062.72;4935547;29;20463;-80
2021/12/10 06:48:36;;;;;;;17.15;7.78;;;;;;;2.14;100.00;96053.94;4946416;29;20055;-79
2021/12/10 06:51:18;;;;;;;15.00;7.25;;;;;;;2.25;100.00;96049.16;4959651;28;20194;-78
2021/12/10 06:53:45;;;;;;;14.85;7.55;;;;;;;2.26;100.00;96050.75;4965849;28;20051;-79
2021/12/10 06:56:14;;;;;;;14.93;7.68;;;;;;;2.70;100.00;96039.34;4968538;28;20081;-80
2021/12/10 06:58:42;;;;;;;14.20;8.05;;;;;;;2.45;100.00;96036.16;4942362;28;20051;-79
2021/12/10 07:01:21;;;;;;;13.95;7.47;;;;;;;2.42;100.00;96023.44;4956446;29;20098;-79
2021/12/10 07:03:49;;;;;;;12.90;7.40;;;;;;;2.39;100.00;96021.38;4932976;28;20118;-80
2021/12/10 07:06:17;;;;;;;14.15;8.40;;;;;;;2.37;100.00;96015.53;4954099;28;20086;-80
2021/12/10 07:08:46;;;;;;;15.52;8.00;;;;;;;2.47;100.00;96023.31;4938649;28;20700;-80
2021/12/10 07:11:15;;;;;;;15.85;7.70;;;;;;;2.52;100.00;96014.41;4972168;28;20058;-80
2021/12/10 07:13:46;;;;;;;14.23;7.75;;;;;;;2.43;100.00;96019.66;4973372;28;20058;-80
2021/12/10 07:16:13;;;;;;;16.25;8.52;;;;;;;2.53;100.00;96030.09;4956248;28;20619;-80
2021/12/10 07:18:40;;;;;;;15.77;8.32;;;;;;;2.44;100.00;96012.44;4969089;28;20050;-80
2021/12/10 07:21:08;;;;;;;16.85;8.57;;;;;;;2.51;100.00;96013.59;4951399;28;20048;-80
2021/12/10 07:23:37;;;;;;;15.95;7.93;;;;;;;2.51;100.00;96010.94;4936894;29;20142;-80
2021/12/10 07:26:05;;;;;;;19.38;8.80;;;;;;;2.48;100.00;96008.84;4937314;28;20059;-79
2021/12/10 07:28:31;;;;;;;16.02;8.45;;;;;;;2.40;100.00;96011.47;4942610;28;20097;-79
2021/12/10 07:30:59;;;;;;;14.93;8.52;;;;;;;2.48;100.00;95998.19;4975902;28;20042;-80
2021/12/10 07:33:26;;;;;;;16.95;9.23;;;;;;;2.43;100.00;95992.97;4939832;28;20205;-80
2021/12/10 07:35:57;;;;;;;17.25;9.50;;;;;;;2.48;100.00;95994.72;4969503;28;20074;-80
2021/12/10 07:38:23;;;;;;;18.67;9.35;;;;;;;2.52;100.00;96003.72;4972590;28;20074;-80
2021/12/10 07:40:51;;;;;;;24.13;10.68;;;;;;;2.75;100.00;95988.47;4955074;28;20055;-80
2021/12/10 07:43:20;;;;;;;19.90;9.77;;;;;;;3.00;100.00;95987.81;4972768;28;20046;-80
2021/12/10 07:45:48;;;;;;;21.63;10.55;;;;;;;2.80;100.00;95986.47;4971356;28;20109;-81
2021/12/10 07:48:19;;;;;;;20.73;10.93;;;;;;;2.90;100.00;95980.84;4945068;28;20147;-82
2021/12/10 07:50:57;;;;;;;20.20;9.48;;;;;;;2.96;100.00;95981.53;4965139;28;20468;-80
2021/12/10 07:53:28;;;;;;;21.73;9.68;;;;;;;3.04;100.00;95978.09;4957782;28;20657;-80
2021/12/10 07:55:58;;;;;;;18.42;9.57;;;;;;;3.02;100.00;95975.72;4943559;28;20133;-80
2021/12/10 07:58:25;;;;;;;21.67;10.32;;;;;;;3.07;100.00;95972.16;4961882;28;20046;-82
2021/12/10 08:00:52;;;;;;;20.40;10.45;;;;;;;3.13;100.00;95977.03;4937800;28;20186;-80
2021/12/10 08:03:19;;;;;;;22.98;10.52;;;;;;;3.23;100.00;95972.53;4946038;28;20403;-80
2021/12/10 08:05:47;;;;;;;20.23;10.13;;;;;;;3.28;100.00;95967.06;4934639;28;20150;-79
2021/12/10 08:08:14;;;;;;;20.10;10.40;;;;;;;3.11;100.00;95955.19;4944986;28;20061;-79
2021/12/10 08:10:42;;;;;;;21.88;10.20;;;;;;;3.05;100.00;95955.59;4939430;28;20078;-80
2021/12/10 08:13:08;;;;;;;26.38;11.02;;;;;;;3.21;100.00;95964.00;4953110;28;20920;-80
2021/12/10 08:15:35;;;;;;;21.20;10.20;;;;;;;3.14;100.00;95957.25;4954690;28;20047;-79
2021/12/10 08:18:03;;;;;;;18.90;9.95;;;;;;;3.42;100.00;95965.03;4936430;29;20070;-80
2021/12/10 08:20:31;;;;;;;20.73;10.18;;;;;;;3.53;100.00;95951.09;4945676;29;20070;-80
2021/12/10 08:22:58;;;;;;;17.38;9.48;;;;;;;3.62;100.00;95957.22;4967027;29;20043;-81
2021/12/10 08:25:25;;;;;;;21.17;9.35;;;;;;;3.58;100.00;95961.66;4953868;29;20067;-80
2021/12/10 08:27:54;;;;;;;16.70;9.10;;;;;;;3.48;100.00;95956.59;4971615;29;20051;-79
2021/12/10 08:30:24;;;;;;;16.33;8.68;;;;;;;3.64;100.00;95960.38;4959083;28;20090;-79
2021/12/10 08:32:54;;;;;;;15.93;8.50;;;;;;;3.58;100.00;95968.88;4936997;29;20639;-80
2021/12/10 08:35:29;;;;;;;15.05;8.68;;;;;;;3.34;100.00;95949.75;4961327;28;20142;-81
2021/12/10 08:37:58;;;;;;;15.27;8.50;;;;;;;3.57;100.00;95957.38;5042076;23;20092;-80
2021/12/10 08:40:28;;;;;;;16.08;8.45;;;;;;;3.33;100.00;95953.53;4974804;28;20035;-79
2021/12/10 08:42:55;;;;;;;14.65;8.65;;;;;;;3.51;100.00;95941.81;4976098;28;20074;-79
2021/12/10 08:45:24;;;;;;;15.57;8.57;;;;;;;3.41;100.00;95942.06;4957259;28;20114;-80
2021/12/10 08:47:51;;;;;;;16.25;8.73;;;;;;;3.49;100.00;95942.09;4975299;28;20114;-80
2021/12/10 08:50:23;;;;;;;18.27;9.20;;;;;;;3.68;100.00;95939.94;4975501;28;20058;-79
2021/12/10 08:52:57;;;;;;;26.58;12.02;;;;;;;3.97;100.00;95934.00;4975529;28;20043;-81
2021/12/10 08:55:26;;;;;;;15.63;8.50;;;;;;;4.40;100.00;95928.63;4974162;28;20097;-80
2021/12/10 08:57:53;;;;;;;13.60;8.07;;;;;;;5.41;100.00;95925.19;4964075;28;20130;-80
2021/12/10 09:00:22;;;;;;;18.98;9.48;;;;;;;6.55;100.00;95906.84;4961599;29;20055;-79
2021/12/10 09:02:51;;;;;;;21.70;9.70;;;;;;;8.08;100.00;95914.09;4954931;28;20500;-81
2021/12/10 09:05:17;;;;;;;20.20;10.30;;;;;;;9.36;100.00;95900.28;4955494;28;20087;-78
2021/12/10 09:07:45;;;;;;;17.27;9.15;;;;;;;10.02;100.00;95895.63;4955912;28;20115;-79
2021/12/10 09:10:15;;;;;;;9.43;5.55;;;;;;;9.52;100.00;95892.16;4950384;28;20085;-79
2021/12/10 09:12:42;;;;;;;7.55;4.82;;;;;;;10.42;100.00;95891.84;4953125;28;20524;-79
2021/12/10 09:15:18;;;;;;;7.60;3.95;;;;;;;9.75;100.00;95891.19;4951561;29;20054;-80
2021/12/10 09:17:46;;;;;;;7.15;3.55;;;;;;;10.45;100.00;95891.16;4952765;28;20047;-79
2021/12/10 09:20:24;;;;;;;7.32;4.28;;;;;;;11.36;84.57;95881.19;4958565;28;20054;-80
2021/12/10 09:22:53;;;;;;;11.40;6.32;;;;;;;11.52;71.70;95876.44;4954624;28;20043;-80
2021/12/10 09:25:20;;;;;;;9.57;5.80;;;;;;;12.24;68.30;95876.34;4977048;28;20067;-78
2021/12/10 09:27:47;;;;;;;9.85;5.63;;;;;;;11.60;71.34;95869.19;4953121;28;20058;-80
2021/12/10 09:30:18;;;;;;;9.82;5.00;;;;;;;11.86;77.09;95878.16;4953772;28;20575;-78
2021/12/10 09:32:45;;;;;;;9.48;5.95;;;;;;;10.70;100.00;95873.47;4951345;28;20126;-80
2021/12/10 09:35:14;;;;;;;8.82;5.53;;;;;;;10.47;100.00;95873.44;4966491;28;20062;-81
2021/12/10 09:37:42;;;;;;;9.50;5.95;;;;;;;11.19;99.54;95868.94;4960208;28;20051;-80
2021/12/10 09:40:16;;;;;;;8.32;5.57;;;;;;;9.64;100.00;95855.03;4960069;28;20085;-79
2021/12/10 09:42:44;;;;;;;8.55;4.53;;;;;;;10.19;100.00;95855.84;4958890;28;20039;-80
2021/12/10 09:45:15;;;;;;;6.03;4.30;;;;;;;11.69;85.34;95858.94;4962879;29;20083;-79
2021/12/10 09:47:43;;;;;;;6.35;4.15;;;;;;;11.61;71.75;95860.72;4959554;28;20055;-80
2021/12/10 09:50:11;;;;;;;6.55;4.10;;;;;;;11.87;74.38;95852.59;4965742;28;20075;-80
2021/12/10 09:52:38;;;;;;;5.95;3.88;;;;;;;11.87;67.57;95844.47;4954324;28;20048;-80
2021/12/10 09:55:09;;;;;;;5.25;3.58;;;;;;;12.14;64.82;95850.63;4955073;28;20178;-78
2021/12/10 09:57:37;;;;;;;4.13;3.42;;;;;;;11.72;66.71;95836.50;4952052;28;20518;-80
2021/12/10 10:00:23;;;;;;;5.88;3.80;;;;;;;10.46;80.12;95839.38;4951001;29;20058;-79
2021/12/10 10:02:51;;;;;;;7.78;3.95;;;;;;;10.88;100.00;95842.09;4951767;28;20047;-79
2021/12/10 10:05:18;;;;;;;4.93;3.72;;;;;;;-141.50;100.00;63355.56;4951101;28;20107;-79
2021/12/10 10:07:51;;;;;;;5.80;4.03;;;;;;;-141.50;100.00;63355.56;4951136;29;20170;-79
2021/12/10 10:10:19;;;;;;;5.55;3.72;;;;;;;-141.50;100.00;63355.56;4953499;28;20079;-78
2021/12/10 10:12:48;;;;;;;4.95;3.65;;;;;;;-141.50;100.00;63355.56;4949135;28;20047;-79
2021/12/10 10:15:19;;;;;;;7.57;4.20;;;;;;;-141.50;100.00;63355.56;4947155;29;20570;-79
2021/12/10 10:17:53;;;;;;;6.75;4.25;;;;;;;-141.50;100.00;63355.56;4950381;28;20082;-80
2021/12/10 10:20:20;;;;;;;5.20;3.50;;;;;;;-141.50;100.00;63355.56;4949511;28;20063;-79
2021/12/10 10:22:47;;;;;;;6.43;3.85;;;;;;;-141.50;100.00;63355.56;4954257;28;20512;-80
2021/12/10 10:25:15;;;;;;;5.63;3.72;;;;;;;-141.50;100.00;63355.56;4955054;28;20071;-81
2021/12/10 10:27:43;;;;;;;6.20;3.50;;;;;;;-141.50;100.00;63355.56;4970515;28;20058;-80
2021/12/10 10:30:25;;;;;;;8.10;4.05;;;;;;;-141.50;100.00;63355.56;4971664;28;20146;-80
2021/12/10 10:32:54;;;;;;;8.13;3.97;;;;;;;-141.50;100.00;63355.56;4972303;28;20057;-78
2021/12/10 10:35:26;;;;;;;7.53;4.38;;;;;;;-141.50;100.00;63355.56;4974214;28;20122;-78
2021/12/10 10:37:54;;;;;;;8.07;4.30;;;;;;;-141.50;100.00;63355.56;4973064;28;20388;-80
2021/12/10 10:40:31;;;;;;;7.18;4.32;;;;;;;-141.50;100.00;63355.56;4945980;28;20051;-76
2021/12/10 10:42:59;;;;;;;7.85;4.65;;;;;;;-141.50;100.00;63355.56;4948505;29;20062;-78
2021/12/10 10:45:30;;;;;;;10.68;4.72;;;;;;;-141.50;100.00;63355.56;4953424;29;20051;-78
2021/12/10 10:47:57;;;;;;;6.43;4.10;;;;;;;-141.50;100.00;63355.56;4951480;29;20106;-79
2021/12/10 10:50:49;;;;;;;8.73;4.93;;;;;;;-141.50;100.00;63355.56;4953153;28;20118;-79
2021/12/10 10:53:19;;;;;;;7.85;4.60;;;;;;;-141.50;100.00;63355.56;4953899;28;20064;-79
2021/12/10 10:56:03;;;;;;;8.57;4.95;;;;;;;-141.50;100.00;63355.56;4956724;28;20051;-78
2021/12/10 10:58:38;;;;;;;11.52;5.10;;;;;;;-141.50;100.00;63355.56;4965040;28;20392;-76
2021/12/10 11:01:24;;;;;;;10.75;5.43;;;;;;;-141.50;100.00;63355.56;4973384;28;20095;-78
2021/12/10 11:04:17;;;;;;;8.55;5.13;;;;;;;-141.50;100.00;63355.56;4970844;28;20059;-78
2021/12/10 11:06:48;;;;;;;9.20;5.18;;;;;;;-141.50;100.00;63355.56;4955587;28;20074;-79
2021/12/10 11:09:20;;;;;;;9.43;5.75;;;;;;;-141.50;100.00;63355.56;4955649;28;20114;-79
2021/12/10 11:11:53;;;;;;;13.80;6.38;;;;;;;-141.50;100.00;63355.56;4976117;28;20111;-81
2021/12/10 11:14:32;;;;;;;10.73;5.60;;;;;;;-141.50;100.00;63355.56;4975684;28;20039;-79
2021/12/10 11:17:30;;;;;;;11.85;5.90;;;;;;;-141.50;100.00;63355.56;5005510;28;20106;-81
2021/12/10 11:20:12;;;;;;;10.43;6.60;;;;;;;-141.50;100.00;63355.56;4969443;28;20135;-80
2021/12/10 11:22:47;;;;;;;8.48;5.45;;;;;;;-141.50;100.00;63355.56;4972756;28;20135;-81
2021/12/10 11:25:19;;;;;;;12.93;5.97;;;;;;;-141.50;100.00;63355.56;4973399;28;20099;-79
2021/12/10 11:27:47;;;;;;;11.57;5.70;;;;;;;-141.50;100.00;63355.56;4978683;28;20042;-79
2021/12/10 11:30:22;;;;;;;10.65;5.47;;;;;;;-141.50;100.00;63355.56;4981848;28;20031;-80
2021/12/10 11:33:12;;;;;;;8.73;5.03;;;;;;;-141.50;100.00;63355.56;4963636;28;20086;-79
2021/12/10 11:35:42;;;;;;;10.95;4.72;;;;;;;-141.50;100.00;63355.56;4997504;28;20062;-79
2021/12/10 11:38:17;;;;;;;6.07;4.22;;;;;;;-141.50;100.00;63355.56;4963259;29;20047;-81
2021/12/10 11:41:23;;;;;;;8.05;4.97;;;;;;;-141.50;100.00;63355.56;4969070;28;20065;-82
2021/12/10 11:44:17;;;;;;;5.90;3.72;;;;;;;-141.50;100.00;63355.56;4933485;29;20079;-80